Time;durP1;ratioP1;P1;durP2;ratioP2;P2;SDS_P1;SDS_P2;PMS_P1;PMS_P2;Temp;Humidity;BMP_temperature;BMP_pressure;BME280_temperature;BME280_humidity;BME280_pressure;Samples;Min_cycle;Max_cycle;Signal;HPM_P1;HPM_P2
2023/07/15 00:02:08;;;;;;;1999.90;999.90;;;;;;;20.52;100.00;94571.25;5083223;28;20174;-66
2023/07/15 00:04:34;;;;;;;1999.90;999.90;;;;;;;20.46;100.00;94529.59;5083179;28;20185;-66
2023/07/15 00:06:59;;;;;;;1999.90;999.90;;;;;;;20.48;100.00;94487.47;5083203;28;20173;-66
2023/07/15 00:09:27;;;;;;;1999.90;999.90;;;;;;;20.45;100.00;94472.59;5085626;28;20249;-65
2023/07/15 00:11:52;;;;;;;1999.90;999.90;;;;;;;20.42;100.00;94451.38;5087325;28;20177;-66
2023/07/15 00:14:22;;;;;;;1999.90;999.90;;;;;;;20.41;100.00;94430.44;5087447;28;20180;-65
2023/07/15 00:16:49;;;;;;;1999.90;999.90;;;;;;;20.40;100.00;94403.19;5087228;28;20205;-65
2023/07/15 00:19:17;;;;;;;1999.90;999.90;;;;;;;20.39;100.00;94391.31;5087434;28;20219;-66
2023/07/15 00:21:43;;;;;;;1999.90;999.90;;;;;;;20.39;100.00;94362.84;5086636;28;20181;-65
2023/07/15 00:24:08;;;;;;;1999.90;999.90;;;;;;;20.36;100.00;94345.13;5086777;28;20173;-66
2023/07/15 00:26:34;;;;;;;1999.90;999.90;;;;;;;20.38;100.00;94345.41;5086950;28;20218;-66
2023/07/15 00:29:00;;;;;;;1999.90;999.90;;;;;;;20.38;100.00;94367.59;5087233;28;20177;-67
2023/07/15 00:31:26;;;;;;;1999.90;999.90;;;;;;;20.39;100.00;94385.75;5086625;28;20287;-67
2023/07/15 00:33:52;;;;;;;1999.90;999.90;;;;;;;20.36;100.00;94369.34;5086593;28;20177;-67
2023/07/15 00:36:18;;;;;;;1999.90;999.90;;;;;;;20.36;100.00;94344.41;5086934;28;20179;-67
2023/07/15 00:38:44;;;;;;;1999.90;999.90;;;;;;;20.33;100.00;94310.09;5087172;28;20201;-67
2023/07/15 00:41:33;;;;;;;1999.90;999.90;;;;;;;20.32;100.00;94264.16;5086899;28;20180;-68
2023/07/15 00:43:58;;;;;;;1999.90;999.90;;;;;;;20.37;100.00;94249.59;5086173;28;20169;-67
2023/07/15 00:46:43;;;;;;;1999.90;999.90;;;;;;;20.36;100.00;94259.16;5086314;28;20183;-67
2023/07/15 00:49:17;;;;;;;1999.90;999.90;;;;;;;20.37;100.00;94246.06;5086073;28;20185;-67
2023/07/15 00:51:47;;;;;;;1999.90;999.90;;;;;;;20.36;100.00;94231.41;5086636;28;20176;-67
2023/07/15 00:54:13;;;;;;;1999.90;999.90;;;;;;;20.35;100.00;94213.25;5086712;28;20220;-67
2023/07/15 00:56:40;;;;;;;1999.90;999.90;;;;;;;20.34;100.00;94188.78;5086455;28;20173;-67
2023/07/15 00:59:07;;;;;;;1999.90;999.90;;;;;;;20.34;100.00;94183.25;5085934;28;20220;-68
2023/07/15 01:01:34;;;;;;;1999.90;999.90;;;;;;;20.34;100.00;94161.81;5086568;28;20177;-67
2023/07/15 01:03:59;;;;;;;1999.90;999.90;;;;;;;20.34;100.00;94145.19;5086028;28;20243;-67
2023/07/15 01:06:25;;;;;;;1999.90;999.90;;;;;;;20.32;100.00;94124.75;5086455;28;20181;-67
2023/07/15 01:08:50;;;;;;;1999.90;999.90;;;;;;;20.30;100.00;94089.19;5085962;28;20181;-67
2023/07/15 01:11:16;;;;;;;1999.90;999.90;;;;;;;20.32;100.00;94075.56;5085830;28;20181;-67
2023/07/15 01:13:41;;;;;;;1999.90;999.90;;;;;;;20.32;100.00;94064.47;5085848;28;20173;-66
2023/07/15 01:16:06;;;;;;;1999.90;999.90;;;;;;;20.31;100.00;94076.06;5085692;28;20189;-67
2023/07/15 01:18:32;;;;;;;1999.90;999.90;;;;;;;20.29;100.00;94051.59;5085653;28;20215;-66
2023/07/15 01:20:59;;;;;;;1999.90;999.90;;;;;;;20.30;100.00;94032.97;5084740;28;20173;-66
2023/07/15 01:23:25;;;;;;;1999.90;999.90;;;;;;;20.25;100.00;94026.13;5085312;28;20181;-66
2023/07/15 01:25:51;;;;;;;1999.90;999.90;;;;;;;20.24;100.00;93993.34;5086149;28;20177;-66
2023/07/15 01:28:16;;;;;;;1999.90;999.90;;;;;;;20.25;100.00;93992.84;5085724;28;20193;-66
2023/07/15 01:30:41;;;;;;;1999.90;999.90;;;;;;;20.25;100.00;93992.84;5085570;28;20178;-66
2023/07/15 01:33:07;;;;;;;1999.90;999.90;;;;;;;20.22;100.00;93977.25;5085717;28;20173;-67
2023/07/15 01:35:32;;;;;;;1999.90;999.90;;;;;;;20.20;100.00;93959.56;5085791;28;20170;-66
2023/07/15 01:37:57;;;;;;;1999.90;999.90;;;;;;;20.18;100.00;93954.53;5085265;28;20200;-66
2023/07/15 01:40:23;;;;;;;1999.90;999.90;;;;;;;20.17;100.00;93864.28;5085245;28;20169;-66
2023/07/15 01:42:48;;;;;;;1999.90;999.90;;;;;;;20.16;100.00;93801.03;5085178;28;20169;-66
2023/07/15 01:45:13;;;;;;;1999.90;999.90;;;;;;;20.16;100.00;93771.28;5085154;28;20181;-67
2023/07/15 01:47:39;;;;;;;1999.90;999.90;;;;;;;20.16;100.00;93782.38;5085072;28;20170;-66
2023/07/15 01:50:08;;;;;;;1999.90;999.90;;;;;;;20.18;100.00;93790.94;5085008;28;20170;-67
2023/07/15 01:52:33;;;;;;;1999.90;999.90;;;;;;;20.17;100.00;93794.97;5084824;28;20213;-66
2023/07/15 01:54:59;;;;;;;1999.90;999.90;;;;;;;20.15;100.00;93805.81;5085090;28;20184;-67
2023/07/15 01:57:26;;;;;;;1999.90;999.90;;;;;;;20.14;100.00;93798.75;5085245;28;20197;-66
2023/07/15 01:59:57;;;;;;;1999.90;999.90;;;;;;;20.07;100.00;93818.63;5085334;28;20215;-66
2023/07/15 02:02:23;;;;;;;1999.90;999.90;;;;;;;20.05;100.00;93837.78;5085271;28;20162;-67
2023/07/15 02:04:49;;;;;;;1999.90;999.90;;;;;;;20.02;100.00;93819.38;5084784;28;20176;-67
2023/07/15 02:07:14;;;;;;;1999.90;999.90;;;;;;;19.97;100.00;93806.28;5084725;28;20188;-67
2023/07/15 02:09:39;;;;;;;1999.90;999.90;;;;;;;19.97;100.00;93783.34;5084769;28;20211;-67
2023/07/15 02:12:05;;;;;;;1999.90;999.90;;;;;;;19.92;100.00;93776.53;5085163;28;20173;-67
2023/07/15 02:14:30;;;;;;;1999.90;999.90;;;;;;;19.91;100.00;93741.78;5084610;28;20223;-66
2023/07/15 02:16:55;;;;;;;1999.90;999.90;;;;;;;19.90;100.00;93712.56;5084639;28;20188;-67
2023/07/15 02:19:21;;;;;;;1999.90;999.90;;;;;;;19.86;100.00;93703.75;5084976;28;20211;-67
2023/07/15 02:21:46;;;;;;;1999.90;999.90;;;;;;;19.87;100.00;93715.56;5084511;28;20176;-67
2023/07/15 02:24:11;;;;;;;1999.90;999.90;;;;;;;19.88;100.00;93695.66;5084635;28;20174;-67
2023/07/15 02:26:37;;;;;;;1999.90;999.90;;;;;;;19.82;100.00;93667.22;5084912;28;20244;-66
2023/07/15 02:29:03;;;;;;;1999.90;999.90;;;;;;;19.78;100.00;93650.09;5084900;28;20186;-67
2023/07/15 02:31:28;;;;;;;1999.90;999.90;;;;;;;19.80;100.00;93638.47;5084618;28;20174;-67
2023/07/15 02:33:53;;;;;;;1999.90;999.90;;;;;;;19.82;100.00;93639.50;5084282;28;20223;-67
2023/07/15 02:36:19;;;;;;;1999.90;999.90;;;;;;;19.81;100.00;93631.72;5084508;28;20180;-66
2023/07/15 02:38:44;;;;;;;1999.90;999.90;;;;;;;19.82;100.00;93625.66;5084170;28;20261;-66
2023/07/15 02:41:10;;;;;;;1999.90;999.90;;;;;;;19.82;100.00;93622.88;5084881;28;20177;-67
2023/07/15 02:43:35;;;;;;;1999.90;999.90;;;;;;;19.81;100.00;93613.03;5084164;28;20236;-66
2023/07/15 02:46:00;;;;;;;1999.90;999.90;;;;;;;19.83;100.00;93607.75;5084232;28;20173;-66
2023/07/15 02:48:26;;;;;;;1999.90;999.90;;;;;;;19.83;100.00;93602.22;5084323;28;20333;-66
2023/07/15 02:50:52;;;;;;;1999.90;999.90;;;;;;;19.80;100.00;93630.94;5084566;28;20173;-67
2023/07/15 02:53:18;;;;;;;1999.90;999.90;;;;;;;19.76;100.00;93674.78;5083855;28;20280;-67
2023/07/15 02:55:43;;;;;;;1999.90;999.90;;;;;;;19.77;100.00;93681.81;5083932;28;20173;-66
2023/07/15 02:58:09;;;;;;;1999.90;999.90;;;;;;;19.77;100.00;93656.16;5084348;28;20208;-66
2023/07/15 03:00:36;;;;;;;1999.90;999.90;;;;;;;19.73;100.00;93648.06;5083901;28;20254;-67
2023/07/15 03:03:01;;;;;;;1999.90;999.90;;;;;;;19.72;100.00;93641.03;5084363;28;20165;-67
2023/07/15 03:05:28;;;;;;;1999.90;999.90;;;;;;;19.69;100.00;93622.63;5083811;28;20183;-68
2023/07/15 03:07:53;;;;;;;1999.90;999.90;;;;;;;19.68;100.00;93620.38;5083911;28;20196;-67
2023/07/15 03:10:19;;;;;;;1999.90;999.90;;;;;;;19.66;100.00;93623.66;5083884;28;20211;-67
2023/07/15 03:12:44;;;;;;;1999.90;999.90;;;;;;;19.66;100.00;93615.34;5084354;28;20169;-67
2023/07/15 03:15:10;;;;;;;1999.90;999.90;;;;;;;19.63;100.00;93621.88;5083979;28;20169;-68
2023/07/15 03:17:36;;;;;;;1999.90;999.90;;;;;;;19.61;100.00;93602.25;5083798;28;20247;-67
2023/07/15 03:20:07;;;;;;;1999.90;999.90;;;;;;;19.57;100.00;93587.13;5083658;28;20189;-67
2023/07/15 03:22:32;;;;;;;1999.90;999.90;;;;;;;19.59;100.00;93581.88;5084287;28;20176;-66
2023/07/15 03:24:57;;;;;;;1999.90;999.90;;;;;;;19.51;100.00;93559.44;5084158;28;20173;-67
2023/07/15 03:27:23;;;;;;;1999.90;999.90;;;;;;;19.52;100.00;93547.09;5083681;28;20240;-67
2023/07/15 03:29:49;;;;;;;1999.90;999.90;;;;;;;19.51;100.00;93531.03;5083691;28;20264;-67
2023/07/15 03:32:14;;;;;;;1999.90;999.90;;;;;;;19.47;100.00;93517.41;5084348;28;20203;-67
2023/07/15 03:34:40;;;;;;;1999.90;999.90;;;;;;;19.43;100.00;93511.38;5083522;28;20176;-67
2023/07/15 03:37:05;;;;;;;1999.90;999.90;;;;;;;19.43;100.00;93498.31;5083532;28;20206;-66
2023/07/15 03:39:30;;;;;;;1999.90;999.90;;;;;;;19.42;100.00;93484.97;5083998;28;20174;-66
2023/07/15 03:41:56;;;;;;;1999.90;999.90;;;;;;;19.53;100.00;93457.97;5084078;28;20173;-67
2023/07/15 03:44:21;;;;;;;1999.90;999.90;;;;;;;19.65;100.00;93453.16;5086581;28;20211;-66
2023/07/15 03:46:47;;;;;;;1999.90;999.90;;;;;;;19.90;100.00;93463.16;5087485;28;20208;-66
2023/07/15 03:49:12;;;;;;;1999.90;999.90;;;;;;;20.07;100.00;93516.47;5087404;28;20200;-66
2023/07/15 03:51:38;;;;;;;1999.90;999.90;;;;;;;20.40;100.00;93566.28;5086921;28;20173;-66
2023/07/15 03:54:05;;;;;;;1999.90;999.90;;;;;;;20.69;100.00;93664.78;5087898;28;20198;-67
2023/07/15 03:56:30;;;;;;;1999.90;999.90;;;;;;;20.98;100.00;93784.28;5087743;28;20173;-67
2023/07/15 03:58:56;;;;;;;1999.90;999.90;;;;;;;21.30;100.00;93935.44;5086949;28;20219;-67
2023/07/15 04:01:21;;;;;;;1999.90;999.90;;;;;;;21.60;100.00;94097.56;5087204;28;20177;-66
2023/07/15 04:03:46;;;;;;;1999.90;999.90;;;;;;;21.81;100.00;94235.06;5087718;28;20188;-66
2023/07/15 04:06:12;;;;;;;1999.90;999.90;;;;;;;22.04;100.00;94350.63;5087361;28;20184;-67
2023/07/15 04:08:37;;;;;;;1999.90;999.90;;;;;;;22.26;100.00;94448.03;5087550;28;20177;-66
2023/07/15 04:11:02;;;;;;;1999.90;999.90;;;;;;;22.60;100.00;94498.25;5086973;28;20177;-66
2023/07/15 04:13:28;;;;;;;1999.90;999.90;;;;;;;22.92;100.00;94602.63;5086872;28;20247;-66
2023/07/15 04:15:53;;;;;;;1999.90;999.90;;;;;;;23.16;100.00;94678.19;5086869;28;20173;-66
2023/07/15 04:18:18;;;;;;;1999.90;999.90;;;;;;;23.37;100.00;94729.69;5086663;28;20212;-66
2023/07/15 04:20:44;;;;;;;1999.90;999.90;;;;;;;23.59;100.00;94791.09;5086963;28;20177;-66
2023/07/15 04:23:09;;;;;;;1999.90;999.90;;;;;;;23.63;100.00;94823.06;5086769;28;20170;-66
2023/07/15 04:25:34;;;;;;;1999.90;999.90;;;;;;;23.97;100.00;94840.69;5086755;28;20180;-65
2023/07/15 04:28:00;;;;;;;1999.90;999.90;;;;;;;24.21;100.00;94874.47;5086633;28;20170;-65
2023/07/15 04:30:25;;;;;;;1999.90;999.90;;;;;;;24.47;100.00;94900.19;5087206;28;20179;-66
2023/07/15 04:32:50;;;;;;;1999.90;999.90;;;;;;;24.86;100.00;94923.34;5086634;28;20245;-65
2023/07/15 04:35:16;;;;;;;1999.90;999.90;;;;;;;25.01;100.00;94949.00;5086858;28;20169;-66
2023/07/15 04:37:41;;;;;;;1999.90;999.90;;;;;;;25.16;100.00;94960.69;5087114;28;20209;-65
2023/07/15 04:40:07;;;;;;;1999.90;999.90;;;;;;;25.26;100.00;94973.91;5086577;28;20201;-65
2023/07/15 04:42:33;;;;;;;1999.90;999.90;;;;;;;25.49;100.00;94979.53;5086851;28;20215;-66
2023/07/15 04:44:58;;;;;;;1999.90;999.90;;;;;;;25.77;100.00;94988.63;5086373;28;20173;-66
2023/07/15 04:47:23;;;;;;;1999.90;999.90;;;;;;;25.98;100.00;95001.84;5086246;28;20184;-66
2023/07/15 04:49:49;;;;;;;1999.90;999.90;;;;;;;26.27;100.00;95012.44;5086735;28;20170;-64
2023/07/15 04:52:14;;;;;;;1999.90;999.90;;;;;;;26.39;100.00;95019.50;5085924;28;20221;-65
2023/07/15 04:54:39;;;;;;;1999.90;999.90;;;;;;;26.64;100.00;95023.25;5085778;28;20170;-65
2023/07/15 04:57:05;;;;;;;1999.90;999.90;;;;;;;26.93;100.00;95028.97;5085809;28;20193;-65
2023/07/15 04:59:30;;;;;;;1999.90;999.90;;;;;;;27.12;100.00;95041.06;5086838;28;20194;-65
2023/07/15 05:01:56;;;;;;;1999.90;999.90;;;;;;;27.17;100.00;95042.31;5086567;28;20236;-66
2023/07/15 05:04:21;;;;;;;1999.90;999.90;;;;;;;27.59;100.00;95053.75;5086543;28;20169;-65
2023/07/15 05:06:47;;;;;;;1999.90;999.90;;;;;;;27.77;100.00;95071.97;5086098;28;20196;-65
2023/07/15 05:09:12;;;;;;;1999.90;999.90;;;;;;;28.16;100.00;95075.22;5086326;28;20247;-66
2023/07/15 05:11:37;;;;;;;1999.90;999.90;;;;;;;28.10;100.00;95078.09;5086657;28;20211;-65
2023/07/15 05:14:04;;;;;;;1999.90;999.90;;;;;;;28.46;100.00;95078.00;5086437;28;20169;-65
2023/07/15 05:16:29;;;;;;;1999.90;999.90;;;;;;;28.89;100.00;95078.75;5085734;28;20180;-65
2023/07/15 05:18:54;;;;;;;1999.90;999.90;;;;;;;29.15;100.00;95079.72;5085757;28;20264;-65
2023/07/15 05:21:20;;;;;;;1999.90;999.90;;;;;;;29.35;100.00;95092.47;5086170;28;20169;-64
2023/07/15 05:23:46;;;;;;;1999.90;999.90;;;;;;;29.54;100.00;95081.97;5085731;28;20197;-64
2023/07/15 05:26:11;;;;;;;1999.90;999.90;;;;;;;29.86;100.00;95091.22;5086341;28;20211;-64
2023/07/15 05:28:38;;;;;;;1999.90;999.90;;;;;;;30.01;100.00;95092.19;5085790;28;20170;-64
2023/07/15 05:31:03;;;;;;;1999.90;999.90;;;;;;;30.23;100.00;95097.47;5085477;28;20169;-64
2023/07/15 05:33:30;;;;;;;1999.90;999.90;;;;;;;30.67;100.00;95093.09;5085436;28;20169;-63
2023/07/15 05:35:55;;;;;;;1999.90;999.90;;;;;;;31.10;100.00;95099.91;5085648;28;20230;-64
2023/07/15 05:38:26;;;;;;;1999.90;999.90;;;;;;;31.34;100.00;95098.91;5085278;28;20197;-63
2023/07/15 05:40:52;;;;;;;1999.90;999.90;;;;;;;31.41;100.00;95095.41;5085212;28;20200;-64
2023/07/15 05:43:19;;;;;;;1999.90;999.90;;;;;;;31.47;100.00;95092.47;5085235;28;20245;-63
2023/07/15 05:45:45;;;;;;;1999.90;999.90;;;;;;;31.59;100.00;95091.66;5085722;28;20195;-63
2023/07/15 05:48:10;;;;;;;1999.90;999.90;;;;;;;31.67;100.00;95095.31;5085699;28;20169;-64
2023/07/15 05:50:37;;;;;;;1999.90;999.90;;;;;;;32.02;100.00;95091.94;5085043;28;20177;-64
2023/07/15 05:53:03;;;;;;;1999.90;999.90;;;;;;;32.10;100.00;95092.75;5085406;28;20224;-64
2023/07/15 05:55:28;;;;;;;1999.90;999.90;;;;;;;32.60;96.42;95095.06;5085340;28;20280;-63
2023/07/15 05:57:53;;;;;;;1999.90;999.90;;;;;;;33.11;93.19;95090.25;5085107;28;20205;-64
2023/07/15 06:00:19;;;;;;;1999.90;999.90;;;;;;;33.34;91.14;95096.06;5084814;28;20192;-63
2023/07/15 06:02:44;;;;;;;1999.90;999.90;;;;;;;33.36;91.89;95087.78;5085248;28;20237;-63
2023/07/15 06:05:09;;;;;;;1999.90;999.90;;;;;;;33.55;88.68;95085.38;5085015;28;20169;-64
2023/07/15 06:07:35;;;;;;;1999.90;999.90;;;;;;;33.70;86.38;95091.84;5084819;28;20173;-64
2023/07/15 06:10:01;;;;;;;1999.90;999.90;;;;;;;33.91;87.45;95093.78;5084634;28;20244;-61
2023/07/15 06:12:26;;;;;;;1999.90;999.90;;;;;;;33.80;85.80;95100.56;5084593;28;20174;-64
2023/07/15 06:14:51;;;;;;;1999.90;999.90;;;;;;;34.61;83.99;95091.94;5084465;28;20205;-63
2023/07/15 06:17:17;;;;;;;1999.90;999.90;;;;;;;34.47;83.34;95082.09;5084446;28;20176;-64
2023/07/15 06:19:42;;;;;;;1999.90;999.90;;;;;;;34.87;79.81;95088.69;5085068;28;20176;-63
2023/07/15 06:22:07;;;;;;;1999.90;999.90;;;;;;;35.44;78.42;95089.69;5084790;28;20207;-63
2023/07/15 06:24:33;;;;;;;1999.90;999.90;;;;;;;35.34;77.00;95088.78;5084919;28;20215;-63
2023/07/15 06:26:58;;;;;;;1999.90;999.90;;;;;;;35.25;76.46;95089.38;5084905;28;20166;-63
2023/07/15 06:29:24;;;;;;;1999.90;999.90;;;;;;;35.36;76.20;95080.44;5084312;28;20168;-64
2023/07/15 06:31:50;;;;;;;1999.90;999.90;;;;;;;36.10;71.92;95087.06;5084250;28;20176;-64
2023/07/15 06:34:16;;;;;;;1999.90;999.90;;;;;;;36.24;67.79;95082.63;5084205;28;20166;-65
2023/07/15 06:36:42;;;;;;;1999.90;999.90;;;;;;;36.17;67.96;95078.47;5084229;28;20197;-62
2023/07/15 06:39:07;;;;;;;1999.90;999.90;;;;;;;36.47;67.79;95083.94;5084008;28;20197;-61
2023/07/15 06:41:33;;;;;;;1999.90;999.90;;;;;;;36.83;64.30;95080.59;5084864;28;20170;-61
2023/07/15 06:43:58;;;;;;;1999.90;999.90;;;;;;;36.31;66.42;95076.09;5084148;28;20169;-61
2023/07/15 06:46:27;;;;;;;1999.90;999.90;;;;;;;37.14;61.21;95090.31;5084086;28;20177;-61
2023/07/15 06:48:52;;;;;;;1999.90;999.90;;;;;;;37.32;59.18;95083.28;5084053;28;20182;-61
2023/07/15 06:51:19;;;;;;;1999.90;999.90;;;;;;;37.34;60.29;95083.47;5084505;28;20169;-62
2023/07/15 06:53:45;;;;;;;1999.90;999.90;;;;;;;37.37;60.43;95075.81;5084353;28;20228;-62
2023/07/15 06:56:10;;;;;;;1999.90;999.90;;;;;;;36.69;64.10;95070.81;5084008;28;20165;-62
2023/07/15 06:58:35;;;;;;;1999.90;999.90;;;;;;;37.69;62.52;95062.09;5083750;28;20278;-62
2023/07/15 07:01:01;;;;;;;1999.90;999.90;;;;;;;38.00;57.59;95063.19;5083964;28;20176;-62
2023/07/15 07:03:27;;;;;;;1999.90;999.90;;;;;;;38.14;56.42;95067.19;5083756;28;20185;-61
2023/07/15 07:05:53;;;;;;;1999.90;999.90;;;;;;;38.01;56.49;95058.97;5083770;28;20165;-61
2023/07/15 07:08:22;;;;;;;1999.90;999.90;;;;;;;38.19;54.04;95066.16;5083845;28;20199;-62
2023/07/15 07:10:50;;;;;;;1999.90;999.90;;;;;;;37.79;56.12;95057.22;5084308;28;20172;-62
2023/07/15 07:13:15;;;;;;;1999.90;999.90;;;;;;;38.23;55.13;95055.03;5084222;28;20199;-62
2023/07/15 07:15:40;;;;;;;1999.90;999.90;;;;;;;38.49;55.83;95047.81;5083600;28;20169;-62
2023/07/15 07:18:06;;;;;;;1999.90;999.90;;;;;;;38.43;52.48;95056.63;5082840;28;20204;-62
2023/07/15 07:20:31;;;;;;;1999.90;999.90;;;;;;;37.82;53.76;95044.63;5083694;28;20172;-62
2023/07/15 07:22:57;;;;;;;1999.90;999.90;;;;;;;38.32;50.73;95050.72;5084520;28;20196;-62
2023/07/15 07:25:22;;;;;;;1999.90;999.90;;;;;;;38.88;48.41;95052.97;5083631;28;20165;-61
2023/07/15 07:27:47;;;;;;;1999.90;999.90;;;;;;;39.71;47.08;95045.59;5083712;28;20203;-61
2023/07/15 07:30:13;;;;;;;1999.90;999.90;;;;;;;40.41;44.66;95044.22;5084258;28;20218;-62
2023/07/15 07:32:38;;;;;;;1999.90;999.90;;;;;;;40.01;44.97;95047.81;5083753;28;20242;-62
2023/07/15 07:35:04;;;;;;;1999.90;999.90;;;;;;;40.41;43.23;95053.53;5083622;28;20176;-62
2023/07/15 07:37:29;;;;;;;1999.90;999.90;;;;;;;40.33;43.03;95043.63;5083090;28;20204;-61
2023/07/15 07:39:54;;;;;;;1999.90;999.90;;;;;;;40.88;42.96;95046.03;5083490;28;20169;-65
2023/07/15 07:42:20;;;;;;;1999.90;999.90;;;;;;;41.02;38.69;95047.78;5083459;28;20189;-62
2023/07/15 07:44:45;;;;;;;1999.90;999.90;;;;;;;40.97;37.87;95045.25;5083353;28;20169;-62
2023/07/15 07:47:10;;;;;;;1999.90;999.90;;;;;;;40.91;37.65;95047.69;5083964;28;20185;-62
2023/07/15 07:49:36;;;;;;;1999.90;999.90;;;;;;;40.52;37.01;95046.41;5083351;28;20173;-63
2023/07/15 07:52:03;;;;;;;1999.90;999.90;;;;;;;40.67;36.39;95051.78;5083273;28;20279;-62
2023/07/15 07:54:28;;;;;;;1999.90;999.90;;;;;;;40.81;35.20;95044.13;5083985;28;20161;-62
2023/07/15 07:56:53;;;;;;;1999.90;999.90;;;;;;;40.06;33.16;95052.47;5083896;28;20169;-62
2023/07/15 07:59:19;;;;;;;1999.90;999.90;;;;;;;40.35;33.48;95041.69;5083443;28;20224;-62
2023/07/15 08:01:44;;;;;;;1999.90;999.90;;;;;;;39.34;31.93;95041.44;5083809;28;20177;-61
2023/07/15 08:04:09;;;;;;;1999.90;999.90;;;;;;;39.84;32.47;95044.41;5083272;28;20245;-62
2023/07/15 08:06:35;;;;;;;1999.90;999.90;;;;;;;39.99;32.50;95047.69;5083792;28;20227;-61
2023/07/15 08:09:00;;;;;;;1999.90;999.90;;;;;;;39.78;33.52;95038.22;5084100;28;20208;-61
2023/07/15 08:11:26;;;;;;;1999.90;999.90;;;;;;;39.79;33.09;95039.75;5083266;28;20197;-62
2023/07/15 08:13:53;;;;;;;1999.90;999.90;;;;;;;40.66;31.14;95042.44;5083763;28;20202;-62
2023/07/15 08:16:39;;;;;;;1999.90;999.90;;;;;;;40.54;30.59;95043.69;5083136;28;20169;-62
2023/07/15 08:19:06;;;;;;;1999.90;999.90;;;;;;;40.75;29.77;95040.88;5083565;28;20189;-62
2023/07/15 08:21:32;;;;;;;1999.90;999.90;;;;;;;41.42;30.24;95029.63;5083015;28;20208;-62
2023/07/15 08:23:57;;;;;;;1999.90;999.90;;;;;;;41.77;29.54;95027.66;5083097;28;20248;-62
2023/07/15 08:26:24;;;;;;;1999.90;999.90;;;;;;;42.43;28.70;95023.28;5083548;28;20169;-62
2023/07/15 08:28:50;;;;;;;1999.90;999.90;;;;;;;41.32;29.92;95023.22;5082692;28;20173;-62
2023/07/15 08:31:15;;;;;;;1999.90;999.90;;;;;;;40.07;30.17;95030.31;5087118;28;20220;-62
2023/07/15 08:33:41;;;;;;;1999.90;999.90;;;;;;;40.39;29.56;95026.88;5086832;28;20169;-63
2023/07/15 08:36:07;;;;;;;1999.90;999.90;;;;;;;40.89;28.53;95033.97;5087067;28;20169;-62
2023/07/15 08:38:32;;;;;;;1999.90;999.90;;;;;;;40.49;29.34;95030.44;5086543;28;20193;-62
2023/07/15 08:41:01;;;;;;;1999.90;999.90;;;;;;;39.65;29.39;95024.41;5086487;28;20169;-63
2023/07/15 08:43:28;;;;;;;1999.90;999.90;;;;;;;40.11;28.31;95027.72;5086745;28;20165;-62
2023/07/15 08:45:58;;;;;;;1999.90;999.90;;;;;;;41.05;28.39;95020.00;5086470;28;20192;-63
2023/07/15 08:48:23;;;;;;;1999.90;999.90;;;;;;;40.41;29.85;95024.16;5086324;28;20161;-63
2023/07/15 08:50:49;;;;;;;1999.90;999.90;;;;;;;39.72;30.25;95017.75;5086475;28;20283;-63
2023/07/15 08:53:24;;;;;;;1999.90;999.90;;;;;;;39.12;31.17;95026.25;5085851;28;20233;-64
2023/07/15 08:55:50;;;;;;;1999.90;999.90;;;;;;;39.71;31.38;95016.22;5086672;28;20176;-63
2023/07/15 08:58:16;;;;;;;1999.90;999.90;;;;;;;39.17;30.18;95019.47;5085777;28;20201;-63
2023/07/15 09:00:42;;;;;;;1999.90;999.90;;;;;;;39.91;29.59;95012.00;5086005;28;20189;-64
2023/07/15 09:03:07;;;;;;;1999.90;999.90;;;;;;;39.44;27.27;95022.19;5085801;28;20226;-63
2023/07/15 09:05:33;;;;;;;1999.90;999.90;;;;;;;40.41;27.19;95021.31;5085980;28;20169;-63
2023/07/15 09:07:58;;;;;;;1999.90;999.90;;;;;;;40.00;27.83;95008.34;5085866;28;20240;-63
2023/07/15 09:10:27;;;;;;;1999.90;999.90;;;;;;;39.99;27.93;95015.41;5085923;28;20165;-63
2023/07/15 09:12:55;;;;;;;1999.90;999.90;;;;;;;40.23;27.99;95005.72;5085884;28;20180;-63
2023/07/15 09:15:21;;;;;;;1999.90;999.90;;;;;;;39.87;28.69;95011.72;5085952;28;20166;-64
2023/07/15 09:17:55;;;;;;;1999.90;999.90;;;;;;;40.55;28.51;95005.81;5086145;28;20205;-63
2023/07/15 09:20:22;;;;;;;1999.90;999.90;;;;;;;39.80;28.52;95001.19;5086490;28;20166;-64
2023/07/15 09:22:58;;;;;;;1999.90;999.90;;;;;;;39.22;28.90;95000.50;5085405;28;20176;-63
2023/07/15 09:25:25;;;;;;;1999.90;999.90;;;;;;;40.71;27.98;94995.47;5085801;28;20169;-63
2023/07/15 09:27:51;;;;;;;1999.90;999.90;;;;;;;40.49;28.31;95008.25;5085614;28;20165;-63
2023/07/15 09:30:17;;;;;;;1999.90;999.90;;;;;;;39.46;29.45;94995.84;5085426;28;20169;-65
2023/07/15 09:32:43;;;;;;;1999.90;999.90;;;;;;;39.75;29.52;94999.38;5085920;28;20165;-63
2023/07/15 09:35:09;;;;;;;1999.90;999.90;;;;;;;40.90;28.39;94995.34;5085862;28;20175;-63
2023/07/15 09:37:34;;;;;;;1999.90;999.90;;;;;;;41.67;28.01;94986.81;5085339;28;20193;-63
2023/07/15 09:40:04;;;;;;;1999.90;999.90;;;;;;;41.65;27.64;94992.41;5085171;28;20207;-64
2023/07/15 09:42:29;;;;;;;1999.90;999.90;;;;;;;40.73;28.66;94986.25;5084955;28;20161;-63
2023/07/15 09:44:55;;;;;;;1999.90;999.90;;;;;;;39.70;30.50;94991.84;5085669;28;20165;-63
2023/07/15 09:47:21;;;;;;;1999.90;999.90;;;;;;;39.60;31.12;94980.44;5085121;28;20161;-63
2023/07/15 09:49:46;;;;;;;1999.90;999.90;;;;;;;39.94;29.73;94993.59;5085085;28;20182;-63
2023/07/15 09:52:14;;;;;;;1999.90;999.90;;;;;;;39.88;29.84;94984.56;5085135;28;20216;-63
2023/07/15 09:54:42;;;;;;;1999.90;999.90;;;;;;;39.05;31.31;94992.09;5085328;28;20211;-64
2023/07/15 09:57:15;;;;;;;1999.90;999.90;;;;;;;37.97;32.92;94967.34;5085561;28;20165;-63
2023/07/15 09:59:46;;;;;;;1999.90;999.90;;;;;;;38.72;31.82;94971.00;5085021;28;20207;-64
2023/07/15 10:02:42;;;;;;;1999.90;999.90;;;;;;;38.51;31.81;94982.25;5085475;28;20193;-63
2023/07/15 10:05:13;;;;;;;1999.90;999.90;;;;;;;38.02;33.71;94957.00;5085206;28;20180;-64
2023/07/15 10:07:42;;;;;;;1999.90;999.90;;;;;;;38.86;31.90;94961.38;5085071;28;20183;-64
2023/07/15 10:10:08;;;;;;;1999.90;999.90;;;;;;;39.43;32.28;94962.72;5084789;28;20180;-63
2023/07/15 10:12:35;;;;;;;1999.90;999.90;;;;;;;38.25;32.31;94986.69;5084696;28;20248;-63
2023/07/15 10:15:02;;;;;;;1999.90;999.90;;;;;;;38.21;32.46;94954.97;5084811;28;20173;-63
2023/07/15 10:17:37;;;;;;;1999.90;999.90;;;;;;;39.37;31.18;94960.16;5085070;28;20173;-63
2023/07/15 10:20:05;;;;;;;1999.90;999.90;;;;;;;38.48;32.49;94952.75;5084566;28;20180;-64
2023/07/15 10:22:34;;;;;;;1999.90;999.90;;;;;;;39.90;30.31;94953.25;5084116;28;20173;-64
2023/07/15 10:25:03;;;;;;;1999.90;999.90;;;;;;;39.27;30.81;94950.81;5084354;28;20169;-64
2023/07/15 10:27:30;;;;;;;1999.90;999.90;;;;;;;38.81;30.98;94945.28;5084420;28;20283;-65
2023/07/15 10:30:26;;;;;;;1999.90;999.90;;;;;;;38.90;30.78;94953.13;5084326;28;20169;-64
2023/07/15 10:33:09;;;;;;;1999.90;999.90;;;;;;;38.59;32.21;94946.47;5084850;28;20200;-64
2023/07/15 10:35:55;;;;;;;1999.90;999.90;;;;;;;39.04;31.98;94934.16;5084710;28;20237;-63
2023/07/15 10:38:25;;;;;;;1999.90;999.90;;;;;;;38.23;33.86;94935.13;5083567;28;20227;-65
2023/07/15 10:41:17;;;;;;;1999.90;999.90;;;;;;;39.43;31.36;94928.41;5084102;28;20236;-65
2023/07/15 10:43:42;;;;;;;1999.90;999.90;;;;;;;39.41;31.21;94937.59;5082353;28;20185;-65
2023/07/15 10:46:13;;;;;;;1999.90;999.90;;;;;;;38.32;32.08;94934.41;5084078;28;20176;-65
2023/07/15 10:48:39;;;;;;;1999.90;999.90;;;;;;;38.98;32.60;94930.88;5084546;28;20166;-65